createdAt,value
2023-04-28T00:00:28.435Z,50.99
2023-04-28T00:02:56.622Z,51.06
2023-04-28T00:05:25.140Z,50.36
2023-04-28T00:07:52.908Z,50.79
2023-04-28T00:10:20.635Z,50.90
2023-04-28T00:12:48.218Z,50.82
2023-04-28T00:15:17.144Z,50.61
2023-04-28T00:17:44.890Z,50.89
2023-04-28T00:20:13.398Z,51.08
2023-04-28T00:22:41.365Z,51.14
2023-04-28T00:25:09.874Z,50.94
2023-04-28T00:27:37.717Z,51.24
2023-04-28T00:30:06.476Z,51.69
2023-04-28T00:32:35.568Z,51.44
2023-04-28T00:35:03.200Z,51.44
2023-04-28T00:37:30.802Z,51.80
2023-04-28T00:39:58.356Z,51.76
2023-04-28T00:42:26.217Z,51.92
2023-04-28T00:44:53.820Z,52.15
2023-04-28T00:47:21.480Z,52.24
2023-04-28T00:49:50.552Z,51.69
2023-04-28T00:52:18.151Z,52.31
2023-04-28T00:54:47.610Z,51.91
2023-04-28T00:57:15.276Z,52.00
2023-04-28T00:59:43.010Z,51.77
2023-04-28T01:02:17.141Z,52.10
2023-04-28T01:04:46.103Z,52.61
2023-04-28T01:07:15.209Z,52.55
2023-04-28T01:09:44.038Z,52.70
2023-04-28T01:12:11.687Z,52.67
2023-04-28T01:14:39.288Z,52.25
2023-04-28T01:17:07.385Z,52.23
2023-04-28T01:19:34.959Z,52.99
2023-04-28T01:22:02.626Z,52.89
2023-04-28T01:24:31.866Z,53.12
2023-04-28T01:27:02.880Z,53.44
2023-04-28T01:29:30.653Z,53.15
2023-04-28T01:31:58.409Z,53.51
2023-04-28T01:34:26.414Z,53.60
2023-04-28T01:36:54.028Z,54.33
2023-04-28T01:39:22.639Z,53.94
2023-04-28T01:41:51.600Z,53.82
2023-04-28T01:44:19.723Z,53.87
2023-04-28T01:46:48.437Z,53.89
2023-04-28T01:49:16.109Z,53.55
2023-04-28T01:51:43.740Z,53.52
2023-04-28T01:54:11.819Z,53.25
2023-04-28T01:56:39.637Z,53.67
2023-04-28T01:59:08.595Z,53.25
2023-04-28T02:01:36.238Z,53.61
2023-04-28T02:04:06.494Z,53.83
2023-04-28T02:06:34.164Z,53.76
2023-04-28T02:09:01.777Z,53.88
2023-04-28T02:11:29.387Z,53.80
2023-04-28T02:13:56.957Z,53.79
2023-04-28T02:16:26.016Z,54.13
2023-04-28T02:18:53.814Z,54.13
2023-04-28T02:21:21.408Z,54.52
2023-04-28T02:23:50.292Z,54.79
2023-04-28T02:26:18.042Z,55.15
2023-04-28T02:28:45.987Z,55.02
2023-04-28T02:31:13.962Z,55.34
2023-04-28T02:33:43.183Z,54.99
2023-04-28T02:36:11.537Z,55.13
2023-04-28T02:38:41.638Z,55.68
2023-04-28T02:41:10.023Z,56.13
2023-04-28T02:43:38.296Z,56.12
2023-04-28T02:46:06.178Z,56.48
2023-04-28T02:48:35.537Z,56.14
2023-04-28T02:51:06.872Z,57.09
2023-04-28T02:53:34.564Z,56.47
2023-04-28T02:56:04.383Z,55.99
2023-04-28T02:58:32.032Z,56.41
2023-04-28T03:00:59.639Z,56.64
2023-04-28T03:03:27.417Z,56.06
2023-04-28T03:05:56.720Z,56.96
2023-04-28T03:08:27.256Z,56.65
2023-04-28T03:10:55.455Z,57.11
2023-04-28T03:13:23.072Z,56.99
2023-04-28T03:15:50.974Z,57.63
2023-04-28T03:18:18.623Z,57.87
2023-04-28T03:20:46.237Z,58.96
2023-04-28T03:23:13.796Z,58.88
2023-04-28T03:25:42.787Z,58.72
2023-04-28T03:28:11.708Z,58.71
2023-04-28T03:30:39.306Z,59.22
2023-04-28T03:33:07.331Z,59.15
2023-04-28T03:35:34.969Z,59.50
2023-04-28T03:38:02.556Z,59.48
2023-04-28T03:40:30.139Z,59.85
2023-04-28T03:42:59.339Z,61.29
2023-04-28T03:45:27.012Z,60.41
2023-04-28T03:47:55.013Z,60.40
2023-04-28T03:50:24.184Z,61.08
2023-04-28T03:52:52.975Z,61.68
2023-04-28T03:55:20.674Z,61.33
2023-04-28T03:57:48.382Z,61.77
2023-04-28T04:00:17.678Z,62.23
2023-04-28T04:02:45.464Z,61.73
2023-04-28T04:05:13.430Z,61.10
2023-04-28T04:07:41.623Z,61.41
2023-04-28T04:10:11.707Z,62.06
2023-04-28T04:12:39.315Z,61.49
2023-04-28T04:15:08.363Z,61.51
2023-04-28T04:17:37.396Z,61.53
2023-04-28T04:20:05.855Z,61.31
2023-04-28T04:22:33.438Z,61.46
2023-04-28T04:25:01.130Z,61.31
2023-04-28T04:27:28.774Z,61.20
2023-04-28T04:29:56.353Z,61.52
2023-04-28T04:32:24.121Z,62.09
2023-04-28T04:34:53.014Z,60.73
2023-04-28T04:37:20.613Z,60.90
2023-04-28T04:39:48.273Z,60.59
2023-04-28T04:42:24.911Z,60.83
2023-04-28T04:44:52.753Z,61.02
2023-04-28T04:47:20.378Z,61.01
2023-04-28T04:49:48.877Z,60.97
2023-04-28T04:52:17.818Z,61.24
2023-04-28T04:54:45.568Z,61.11
2023-04-28T04:57:13.231Z,61.52
2023-04-28T04:59:40.935Z,61.20
2023-04-28T05:02:08.753Z,61.19
2023-04-28T05:04:36.409Z,61.83
2023-04-28T05:07:04.118Z,62.04
2023-04-28T05:09:35.935Z,61.67
2023-04-28T05:12:03.823Z,62.27
2023-04-28T05:14:31.608Z,61.94
2023-04-28T05:17:00.376Z,62.06
2023-04-28T05:19:28.040Z,61.76
2023-04-28T05:21:55.620Z,61.65
2023-04-28T05:24:24.004Z,62.21
2023-04-28T05:26:54.200Z,61.79
2023-04-28T05:29:23.084Z,61.45
2023-04-28T05:31:52.408Z,61.69
2023-04-28T05:34:20.130Z,61.83
2023-04-28T05:36:47.799Z,61.20
2023-04-28T05:39:15.467Z,61.80
2023-04-28T05:41:43.198Z,61.79
2023-04-28T05:44:12.429Z,62.14
2023-04-28T05:46:40.297Z,62.72
2023-04-28T05:49:07.999Z,62.61
2023-04-28T05:51:35.763Z,63.27
2023-04-28T05:54:03.725Z,62.42
2023-04-28T05:56:31.720Z,62.34
2023-04-28T05:59:00.842Z,61.74
2023-04-28T06:01:29.730Z,61.79
2023-04-28T06:03:58.583Z,61.47
2023-04-28T06:06:27.890Z,62.21
2023-04-28T06:08:55.673Z,62.20
2023-04-28T06:11:23.324Z,62.93
2023-04-28T06:13:51.796Z,62.43
2023-04-28T06:16:19.552Z,62.19
2023-04-28T06:18:49.731Z,62.01
2023-04-28T06:21:18.143Z,61.94
2023-04-28T06:23:45.957Z,61.95
2023-04-28T06:26:14.740Z,62.34
2023-04-28T06:28:43.342Z,61.97
2023-04-28T06:31:11.153Z,63.19
2023-04-28T06:33:38.800Z,63.38
2023-04-28T06:36:08.794Z,62.66
2023-04-28T06:38:37.482Z,62.62
2023-04-28T06:41:05.304Z,62.58
2023-04-28T06:43:33.513Z,61.83
2023-04-28T06:46:01.369Z,62.89
2023-04-28T06:48:29.082Z,61.88
2023-04-28T06:50:56.742Z,61.71
2023-04-28T06:53:25.677Z,61.79
2023-04-28T06:55:53.244Z,61.15
2023-04-28T06:58:21.643Z,61.81
2023-04-28T07:00:49.335Z,61.01
2023-04-28T07:03:17.071Z,60.55
2023-04-28T07:05:44.930Z,60.59
2023-04-28T07:08:12.621Z,59.80
2023-04-28T07:10:42.599Z,59.46
2023-04-28T07:13:10.667Z,58.71
2023-04-28T07:15:38.784Z,60.35
2023-04-28T07:18:06.651Z,59.50
2023-04-28T07:20:34.338Z,59.35
2023-04-28T07:23:02.522Z,58.46
2023-04-28T07:25:30.205Z,59.53
2023-04-28T07:27:59.278Z,58.95
2023-04-28T07:30:28.237Z,58.73
2023-04-28T07:32:56.357Z,61.08
2023-04-28T07:35:24.168Z,59.40
2023-04-28T07:37:51.936Z,58.98
2023-04-28T07:40:20.170Z,58.74
2023-04-28T07:42:48.477Z,57.84
2023-04-28T07:45:17.746Z,57.87
2023-04-28T07:47:47.454Z,57.38
2023-04-28T07:50:16.129Z,57.63
2023-04-28T07:52:44.842Z,57.54
2023-04-28T07:55:12.548Z,56.57
2023-04-28T07:57:40.962Z,56.68
2023-04-28T08:00:11.932Z,56.34
2023-04-28T08:02:41.162Z,56.31
2023-04-28T08:05:10.938Z,55.88
2023-04-28T08:07:38.836Z,56.75
2023-04-28T08:10:07.354Z,56.05
2023-04-28T08:12:35.005Z,55.76
2023-04-28T08:15:02.732Z,55.06
2023-04-28T08:17:30.398Z,55.10
2023-04-28T08:19:59.506Z,55.37
2023-04-28T08:22:27.256Z,55.14
2023-04-28T08:24:54.860Z,55.50
2023-04-28T08:27:23.735Z,55.22
2023-04-28T08:29:51.781Z,55.39
2023-04-28T08:32:19.509Z,55.04
2023-04-28T08:34:47.678Z,55.00
2023-04-28T08:37:16.705Z,54.32
2023-04-28T08:39:44.524Z,54.37
2023-04-28T08:42:12.200Z,53.92
2023-04-28T08:44:40.810Z,53.91
2023-04-28T08:47:13.872Z,53.52
2023-04-28T08:49:42.842Z,54.02
2023-04-28T08:52:12.545Z,53.61
2023-04-28T08:54:42.068Z,53.76
2023-04-28T08:57:11.063Z,53.56
2023-04-28T08:59:42.347Z,53.16
2023-04-28T09:02:10.573Z,53.11
2023-04-28T09:04:39.028Z,53.19
2023-04-28T09:07:12.142Z,52.93
2023-04-28T09:09:41.720Z,52.84
2023-04-28T09:12:09.376Z,54.08
2023-04-28T09:14:38.294Z,53.43
2023-04-28T09:17:11.170Z,53.65
2023-04-28T09:19:39.747Z,53.65
2023-04-28T09:22:24.659Z,53.82
2023-04-28T09:24:55.966Z,54.36
2023-04-28T09:27:28.366Z,54.52
2023-04-28T09:29:56.225Z,55.18
2023-04-28T09:32:25.885Z,55.42
2023-04-28T09:34:56.597Z,55.99
2023-04-28T09:37:25.755Z,55.94
2023-04-28T09:39:55.628Z,56.71
2023-04-28T09:42:34.514Z,57.14
2023-04-28T09:45:03.386Z,57.59
2023-04-28T09:47:33.227Z,57.20
2023-04-28T09:50:02.145Z,57.16
2023-04-28T09:52:29.896Z,57.20
2023-04-28T09:54:59.559Z,57.46
2023-04-28T09:57:31.381Z,57.26
2023-04-28T09:59:59.883Z,56.97
2023-04-28T10:04:59.295Z,57.94
2023-04-28T10:07:28.503Z,57.64
2023-04-28T10:09:57.005Z,59.03
2023-04-28T10:12:26.767Z,59.15
2023-04-28T10:14:54.807Z,59.98
2023-04-28T10:17:25.387Z,59.92
2023-04-28T10:19:55.447Z,60.93
2023-04-28T10:22:38.032Z,60.59
2023-04-28T10:25:27.697Z,60.51
2023-04-28T10:27:58.527Z,60.23
2023-04-28T10:30:29.681Z,60.64
2023-04-28T10:33:27.359Z,59.79
2023-04-28T10:35:55.497Z,59.35
2023-04-28T10:38:23.289Z,59.50
2023-04-28T10:40:53.750Z,59.67
2023-04-28T10:43:37.737Z,59.48
2023-04-28T10:46:09.941Z,59.99
2023-04-28T10:49:10.246Z,61.58
2023-04-28T10:51:38.092Z,62.88
2023-04-28T10:54:28.257Z,71.72
2023-04-28T10:57:19.024Z,70.93
2023-04-28T10:59:48.652Z,70.81
2023-04-28T11:02:44.696Z,69.09
2023-04-28T11:05:20.188Z,67.86
2023-04-28T11:08:31.233Z,68.45
2023-04-28T11:11:29.586Z,68.22
2023-04-28T11:14:32.729Z,68.53
2023-04-28T11:17:04.278Z,66.93
2023-04-28T11:19:34.174Z,69.16
2023-04-28T11:22:04.485Z,68.20
2023-04-28T11:24:32.537Z,65.98
2023-04-28T11:27:02.228Z,65.56
2023-04-28T11:29:33.650Z,67.25
2023-04-28T11:32:03.690Z,65.36
2023-04-28T11:34:31.842Z,65.00
2023-04-28T11:36:59.687Z,65.54
2023-04-28T11:39:31.678Z,64.53
2023-04-28T11:42:00.946Z,64.23
2023-04-28T11:44:30.406Z,65.56
2023-04-28T11:47:00.674Z,64.21
2023-04-28T11:49:32.009Z,64.44
2023-04-28T11:52:05.949Z,64.40
2023-04-28T11:54:34.400Z,65.00
2023-04-28T11:57:04.249Z,63.71
2023-04-28T11:59:34.252Z,63.95
2023-04-28T12:02:04.167Z,64.04
2023-04-28T12:04:36.472Z,65.40
2023-04-28T12:07:06.960Z,65.67
2023-04-28T12:09:35.931Z,66.01
2023-04-28T12:12:05.142Z,67.34
2023-04-28T12:14:35.535Z,68.89
2023-04-28T12:17:03.997Z,69.07
2023-04-28T12:19:44.692Z,68.55
2023-04-28T12:22:13.004Z,67.83
2023-04-28T12:24:40.872Z,67.43
2023-04-28T12:27:16.659Z,68.88
2023-04-28T12:29:46.534Z,68.81
2023-04-28T12:32:14.647Z,71.89
2023-04-28T12:34:46.672Z,72.11
2023-04-28T12:37:14.350Z,76.06
2023-04-28T12:39:43.106Z,77.05
2023-04-28T12:42:11.703Z,75.00
2023-04-28T12:44:40.713Z,76.19
2023-04-28T12:47:10.873Z,76.46
2023-04-28T12:49:39.311Z,76.23
2023-04-28T12:52:09.490Z,76.15
2023-04-28T12:54:38.023Z,76.09
2023-04-28T12:57:05.783Z,78.20
2023-04-28T12:59:34.857Z,77.79
2023-04-28T13:02:02.730Z,78.35
2023-04-28T13:04:32.052Z,78.39
2023-04-28T13:07:00.293Z,79.34
2023-04-28T13:09:29.645Z,78.59
2023-04-28T13:11:57.222Z,78.15
2023-04-28T13:14:25.043Z,77.60
2023-04-28T13:16:53.487Z,78.93
2023-04-28T13:19:21.194Z,78.22
2023-04-28T13:21:48.807Z,76.80
2023-04-28T13:24:16.734Z,77.87
2023-04-28T13:26:46.326Z,78.83
2023-04-28T13:29:14.396Z,78.86
2023-04-28T13:31:42.334Z,80.23
2023-04-28T13:34:15.739Z,79.99
2023-04-28T13:36:44.580Z,81.83
2023-04-28T13:39:14.431Z,82.06
2023-04-28T13:41:42.283Z,83.11
2023-04-28T13:44:11.268Z,84.38
2023-04-28T13:46:38.998Z,84.23
2023-04-28T13:49:06.640Z,85.01
2023-04-28T13:51:34.263Z,85.64
2023-04-28T13:54:04.222Z,85.95
2023-04-28T13:56:32.444Z,86.04
2023-04-28T13:59:00.279Z,86.27
2023-04-28T14:01:29.991Z,85.89
2023-04-28T14:03:57.855Z,86.85
2023-04-28T14:06:28.264Z,85.65
2023-04-28T14:08:56.043Z,84.04
2023-04-28T14:11:23.661Z,83.48
2023-04-28T14:13:51.233Z,83.11
2023-04-28T14:16:18.908Z,84.30
2023-04-28T14:18:48.161Z,84.21
2023-04-28T14:21:15.842Z,84.72
2023-04-28T14:23:43.509Z,85.81
2023-04-28T14:26:11.135Z,86.09
2023-04-28T14:28:38.726Z,87.03
2023-04-28T14:31:08.513Z,88.01
2023-04-28T14:33:36.607Z,88.45
2023-04-28T14:36:06.037Z,88.23
2023-04-28T14:38:33.674Z,89.74
2023-04-28T14:41:01.306Z,88.14
2023-04-28T14:43:28.950Z,88.69
2023-04-28T14:45:56.686Z,88.29
2023-04-28T14:48:24.575Z,88.96
2023-04-28T14:50:52.216Z,89.93
2023-04-28T14:53:21.199Z,89.15
2023-04-28T14:55:48.824Z,88.59
2023-04-28T14:58:17.460Z,90.02
2023-04-28T15:00:45.079Z,90.19
2023-04-28T15:03:12.913Z,88.20
2023-04-28T15:05:40.664Z,87.89
2023-04-28T15:08:08.514Z,87.72
2023-04-28T15:10:40.719Z,87.53
2023-04-28T15:13:08.832Z,87.68
2023-04-28T15:15:36.592Z,88.01
2023-04-28T15:18:04.489Z,89.14
2023-04-28T15:20:33.627Z,90.06
2023-04-28T15:23:01.478Z,88.99
2023-04-28T15:25:29.320Z,90.09
2023-04-28T15:27:58.224Z,91.28
2023-04-28T15:30:25.934Z,91.29
2023-04-28T15:32:53.593Z,91.72
2023-04-28T15:35:22.052Z,92.00
2023-04-28T15:37:53.204Z,92.43
2023-04-28T15:40:21.620Z,93.22
2023-04-28T15:42:51.428Z,94.33
2023-04-28T15:45:21.436Z,94.44
2023-04-28T15:47:50.431Z,95.06
2023-04-28T15:50:20.109Z,95.44
2023-04-28T15:52:50.258Z,96.85
2023-04-28T15:55:19.258Z,97.39
2023-04-28T15:57:47.392Z,98.74
2023-04-28T16:00:16.381Z,98.13
2023-04-28T16:02:45.937Z,98.37
2023-04-28T16:05:13.940Z,99.44
2023-04-28T16:07:41.732Z,100.00
2023-04-28T16:10:13.200Z,100.00
2023-04-28T16:12:41.932Z,100.00
2023-04-28T16:15:12.213Z,100.00
2023-04-28T16:17:40.640Z,100.00
2023-04-28T16:20:11.495Z,100.00
2023-04-28T16:22:40.525Z,100.00
2023-04-28T16:25:09.339Z,100.00
2023-04-28T16:27:37.472Z,100.00
2023-04-28T16:30:07.311Z,100.00
2023-04-28T16:32:36.393Z,100.00
2023-04-28T16:35:06.170Z,100.00
2023-04-28T16:37:36.358Z,100.00
2023-04-28T16:40:04.544Z,100.00
2023-04-28T16:42:32.279Z,100.00
2023-04-28T16:44:59.949Z,100.00
2023-04-28T16:47:28.226Z,100.00
2023-04-28T16:49:55.856Z,100.00
2023-04-28T16:52:26.032Z,100.00
2023-04-28T16:54:54.952Z,100.00
2023-04-28T16:57:22.793Z,100.00
2023-04-28T16:59:50.852Z,100.00
2023-04-28T17:02:18.739Z,100.00
2023-04-28T17:04:46.530Z,100.00
2023-04-28T17:07:14.471Z,100.00
2023-04-28T17:09:42.070Z,100.00
2023-04-28T17:12:11.194Z,100.00
2023-04-28T17:14:39.876Z,100.00
2023-04-28T17:17:08.958Z,100.00
2023-04-28T17:19:36.917Z,100.00
2023-04-28T17:22:04.585Z,100.00
2023-04-28T17:24:32.157Z,100.00
2023-04-28T17:26:59.904Z,100.00
2023-04-28T17:29:28.802Z,100.00
2023-04-28T17:31:56.582Z,100.00
2023-04-28T17:34:24.334Z,100.00
2023-04-28T17:36:51.924Z,100.00
2023-04-28T17:39:19.497Z,100.00
2023-04-28T17:41:47.460Z,100.00
2023-04-28T17:44:15.225Z,100.00
2023-04-28T17:46:44.822Z,100.00
2023-04-28T17:49:12.660Z,100.00
2023-04-28T17:51:40.314Z,100.00
2023-04-28T17:54:09.547Z,100.00
2023-04-28T17:56:38.002Z,100.00
2023-04-28T17:59:06.298Z,100.00
2023-04-28T18:01:34.944Z,100.00
2023-04-28T18:04:04.611Z,100.00
2023-04-28T18:06:34.684Z,100.00
2023-04-28T18:09:02.293Z,100.00
2023-04-28T18:11:29.979Z,100.00
2023-04-28T18:13:59.903Z,100.00
2023-04-28T18:16:27.664Z,100.00
2023-04-28T18:18:55.379Z,100.00
2023-04-28T18:21:24.346Z,100.00
2023-04-28T18:23:52.083Z,100.00
2023-04-28T18:26:20.939Z,100.00
2023-04-28T18:28:48.832Z,100.00
2023-04-28T18:31:16.821Z,100.00
2023-04-28T18:33:45.074Z,100.00
2023-04-28T18:36:12.755Z,100.00
2023-04-28T18:38:42.051Z,100.00
2023-04-28T18:41:14.169Z,100.00
2023-04-28T18:43:42.664Z,100.00
2023-04-28T18:46:10.543Z,100.00
2023-04-28T18:48:38.399Z,100.00
2023-04-28T18:51:07.839Z,100.00
2023-04-28T18:53:36.759Z,100.00
2023-04-28T18:56:05.943Z,100.00
2023-04-28T18:58:33.771Z,100.00
2023-04-28T19:01:01.457Z,100.00
2023-04-28T19:03:30.368Z,100.00
2023-04-28T19:05:58.067Z,100.00
2023-04-28T19:08:25.757Z,100.00
2023-04-28T19:10:53.414Z,100.00
2023-04-28T19:13:22.833Z,100.00
2023-04-28T19:15:53.526Z,100.00
2023-04-28T19:18:21.285Z,100.00
2023-04-28T19:20:51.587Z,100.00
2023-04-28T19:23:19.193Z,100.00
2023-04-28T19:25:47.589Z,100.00
2023-04-28T19:28:15.365Z,100.00
2023-04-28T19:30:44.591Z,100.00
2023-04-28T19:33:12.730Z,100.00
2023-04-28T19:35:40.914Z,100.00
2023-04-28T19:38:09.438Z,100.00
2023-04-28T19:40:37.328Z,100.00
2023-04-28T19:43:05.296Z,100.00
2023-04-28T19:45:34.914Z,100.00
2023-04-28T19:48:05.072Z,100.00
2023-04-28T19:50:33.602Z,100.00
2023-04-28T19:53:01.150Z,100.00
2023-04-28T19:55:29.477Z,100.00
2023-04-28T19:57:58.492Z,100.00
2023-04-28T20:00:27.547Z,100.00
2023-04-28T20:02:55.834Z,100.00
2023-04-28T20:05:25.235Z,100.00
2023-04-28T20:07:55.992Z,100.00
2023-04-28T20:10:24.363Z,100.00
2023-04-28T20:12:52.591Z,100.00
2023-04-28T20:15:20.936Z,100.00
2023-04-28T20:17:49.301Z,100.00
2023-04-28T20:20:17.148Z,100.00
2023-04-28T20:22:48.730Z,100.00
2023-04-28T20:25:17.492Z,100.00
2023-04-28T20:27:46.954Z,100.00
2023-04-28T20:30:14.942Z,100.00
2023-04-28T20:32:42.768Z,100.00
2023-04-28T20:35:10.862Z,100.00
2023-04-28T20:37:38.536Z,100.00
2023-04-28T20:40:10.138Z,100.00
2023-04-28T20:42:37.810Z,100.00
2023-04-28T20:45:06.950Z,100.00
2023-04-28T20:47:36.300Z,100.00
2023-04-28T20:50:04.752Z,100.00
2023-04-28T20:52:32.447Z,100.00
2023-04-28T20:55:00.259Z,100.00
2023-04-28T20:57:29.248Z,100.00
2023-04-28T20:59:57.105Z,100.00
2023-04-28T21:02:25.387Z,100.00
2023-04-28T21:04:53.893Z,100.00
2023-04-28T21:07:21.485Z,100.00
2023-04-28T21:09:49.229Z,100.00
2023-04-28T21:12:17.010Z,100.00
2023-04-28T21:14:45.903Z,100.00
2023-04-28T21:17:13.490Z,100.00
2023-04-28T21:19:41.080Z,100.00
2023-04-28T21:22:09.797Z,100.00
2023-04-28T21:24:37.452Z,100.00
2023-04-28T21:27:05.169Z,100.00
2023-04-28T21:29:34.400Z,100.00
2023-04-28T21:32:04.039Z,100.00
2023-04-28T21:34:32.376Z,100.00
2023-04-28T21:37:01.149Z,100.00
2023-04-28T21:39:28.903Z,100.00
2023-04-28T21:41:56.559Z,100.00
2023-04-28T21:44:24.340Z,100.00
2023-04-28T21:46:52.032Z,100.00
2023-04-28T21:49:20.987Z,100.00
2023-04-28T21:51:48.584Z,100.00
2023-04-28T21:54:16.201Z,100.00
2023-04-28T21:56:43.756Z,100.00
2023-04-28T21:59:11.296Z,100.00
2023-04-28T22:01:39.641Z,100.00
2023-04-28T22:04:08.591Z,100.00
2023-04-28T22:06:37.745Z,100.00
2023-04-28T22:09:06.025Z,100.00
2023-04-28T22:11:33.862Z,100.00
2023-04-28T22:14:01.475Z,100.00
2023-04-28T22:16:29.724Z,100.00
2023-04-28T22:18:57.447Z,100.00
2023-04-28T22:21:25.431Z,100.00
2023-04-28T22:23:54.366Z,100.00
2023-04-28T22:26:22.575Z,100.00
2023-04-28T22:28:50.520Z,100.00
2023-04-28T22:31:18.214Z,100.00
2023-04-28T22:33:45.877Z,100.00
2023-04-28T22:36:15.656Z,100.00
2023-04-28T22:38:43.271Z,100.00
2023-04-28T22:41:12.175Z,100.00
2023-04-28T22:43:42.265Z,100.00
2023-04-28T22:46:10.105Z,100.00
2023-04-28T22:48:37.772Z,100.00
2023-04-28T22:51:05.351Z,100.00
2023-04-28T22:53:32.986Z,100.00
2023-04-28T22:56:02.890Z,100.00
2023-04-28T22:58:31.798Z,100.00
2023-04-28T23:01:01.302Z,100.00
2023-04-28T23:03:28.995Z,100.00
2023-04-28T23:05:56.678Z,100.00
2023-04-28T23:08:24.330Z,100.00
2023-04-28T23:10:52.084Z,100.00
2023-04-28T23:13:19.670Z,100.00
2023-04-28T23:15:48.868Z,100.00
2023-04-28T23:18:16.475Z,100.00
2023-04-28T23:20:44.210Z,100.00
2023-04-28T23:23:11.841Z,100.00
2023-04-28T23:25:41.890Z,100.00
2023-04-28T23:28:10.547Z,100.00
2023-04-28T23:30:38.214Z,100.00
2023-04-28T23:33:07.154Z,100.00
2023-04-28T23:35:34.809Z,100.00
2023-04-28T23:38:04.102Z,100.00
2023-04-28T23:40:31.837Z,100.00
2023-04-28T23:42:59.487Z,100.00
2023-04-28T23:45:27.253Z,100.00
2023-04-28T23:47:55.134Z,100.00
2023-04-28T23:50:24.910Z,100.00
2023-04-28T23:52:52.564Z,100.00
2023-04-28T23:55:20.596Z,100.00
2023-04-28T23:57:48.262Z,100.00
